Time;durP1;ratioP1;P1;durP2;ratioP2;P2;SDS_P1;SDS_P2;PMS_P1;PMS_P2;Temp;Humidity;BMP_temperature;BMP_pressure;BME280_temperature;BME280_humidity;BME280_pressure;Samples;Min_cycle;Max_cycle;Signal;HPM_P1;HPM_P2
2023/09/17 00:01:58;;;;;;;;;;;;;;;;;;4972637;28;19921;-86
2023/09/17 00:04:24;;;;;;;;;;;;;;;;;;4971163;28;19917;-86
2023/09/17 00:06:50;;;;;;;;;;;;;;;;;;4973586;28;20437;-87
2023/09/17 00:09:17;;;;;;;;;;;;;;;;;;4954249;28;20011;-84
2023/09/17 00:11:42;;;;;;;;;;;;;;;;;;4973482;28;19937;-88
2023/09/17 00:14:10;;;;;;;;;;;;;;;;;;4974636;28;20437;-83
2023/09/17 00:16:38;;;;;;;;;;;;;;;;;;4995022;28;19957;-84
2023/09/17 00:19:03;;;;;;;;;;;;;;;;;;4993393;28;19941;-87
2023/09/17 00:21:29;;;;;;;;;;;;;;;;;;4977409;28;19918;-85
2023/09/17 00:23:54;;;;;;;;;;;;;;;;;;4991521;28;19925;-82
2023/09/17 00:26:22;;;;;;;;;;;;;;;;;;4990441;28;20010;-84
2023/09/17 00:28:49;;;;;;;;;;;;;;;;;;4973887;28;19925;-86
2023/09/17 00:31:15;;;;;;;;;;;;;;;;;;4958048;28;20016;-85
2023/09/17 00:33:40;;;;;;;;;;;;;;;;;;4975484;28;20000;-86
2023/09/17 00:36:08;;;;;;;;;;;;;;;;;;4992331;28;19918;-83
2023/09/17 00:38:36;;;;;;;;;;;;;;;;;;4991135;28;20129;-83
2023/09/17 00:41:03;;;;;;;;;;;;;;;;;;4971691;28;20056;-90
2023/09/17 00:43:30;;;;;;;;;;;;;;;;;;4970172;28;20031;-86
2023/09/17 00:45:55;;;;;;;;;;;;;;;;;;4974743;28;19964;-87
2023/09/17 00:48:22;;;;;;;;;;;;;;;;;;4974604;28;20004;-87
2023/09/17 00:50:49;;;;;;;;;;;;;;;;;;4990413;28;19932;-86
2023/09/17 00:53:16;;;;;;;;;;;;;;;;;;4972669;28;19917;-83
2023/09/17 00:55:41;;;;;;;;;;;;;;;;;;4971807;28;19937;-84
2023/09/17 00:58:07;;;;;;;;;;;;;;;;;;4970982;28;20259;-90
2023/09/17 01:00:36;;;;;;;;;;;;;;;;;;4971082;28;20514;-86
2023/09/17 01:03:02;;;;;;;;;;;;;;;;;;4972863;28;19922;-86
2023/09/17 01:05:36;;;;;;;;;;;;;;;;;;4987978;28;19949;-88
2023/09/17 01:08:01;;;;;;;;;;;;;;;;;;4972272;28;19914;-86
2023/09/17 01:10:28;;;;;;;;;;;;;;;;;;4968458;28;19924;-84
2023/09/17 01:12:55;;;;;;;;;;;;;;;;;;4986769;28;19925;-85
2023/09/17 01:15:27;;;;;;;;;;;;;;;;;;4971253;28;20005;-86
2023/09/17 01:17:54;;;;;;;;;;;;;;;;;;4956213;28;19926;-84
2023/09/17 01:20:29;;;;;;;;;;;;;;;;;;4953431;28;19917;-86
2023/09/17 01:22:55;;;;;;;;;;;;;;;;;;4971024;28;19914;-88
2023/09/17 01:25:21;;;;;;;;;;;;;;;;;;4989635;28;20011;-83
2023/09/17 01:27:48;;;;;;;;;;;;;;;;;;4970939;28;20460;-88
2023/09/17 01:30:16;;;;;;;;;;;;;;;;;;4954085;28;20390;-86
2023/09/17 01:32:44;;;;;;;;;;;;;;;;;;4956339;28;19940;-87
2023/09/17 01:35:11;;;;;;;;;;;;;;;;;;4987430;28;19932;-87
2023/09/17 01:37:39;;;;;;;;;;;;;;;;;;4954910;28;19918;-85
2023/09/17 01:40:05;;;;;;;;;;;;;;;;;;4975230;28;19922;-87
2023/09/17 01:42:30;;;;;;;;;;;;;;;;;;4974283;28;19913;-86
2023/09/17 01:44:55;;;;;;;;;;;;;;;;;;4956580;28;19929;-87
2023/09/17 01:47:22;;;;;;;;;;;;;;;;;;4992574;28;19922;-84
2023/09/17 01:49:50;;;;;;;;;;;;;;;;;;4975382;28;20013;-88
2023/09/17 01:52:20;;;;;;;;;;;;;;;;;;4957242;28;20000;-85
2023/09/17 01:54:45;;;;;;;;;;;;;;;;;;4974487;28;19914;-84
2023/09/17 01:57:11;;;;;;;;;;;;;;;;;;4974481;28;19979;-87
2023/09/17 01:59:37;;;;;;;;;;;;;;;;;;4976063;28;19922;-84
2023/09/17 02:02:02;;;;;;;;;;;;;;;;;;4972618;28;19925;-87
2023/09/17 02:04:29;;;;;;;;;;;;;;;;;;4977419;28;19964;-83
2023/09/17 02:06:54;;;;;;;;;;;;;;;;;;4993700;28;19949;-83
2023/09/17 02:09:23;;;;;;;;;;;;;;;;;;4990651;28;20498;-87
2023/09/17 02:11:49;;;;;;;;;;;;;;;;;;4958867;28;19924;-85
2023/09/17 02:14:15;;;;;;;;;;;;;;;;;;4991360;28;19918;-86
2023/09/17 02:16:40;;;;;;;;;;;;;;;;;;4959003;28;19926;-86
2023/09/17 02:19:06;;;;;;;;;;;;;;;;;;4972747;28;19937;-87
2023/09/17 02:21:31;;;;;;;;;;;;;;;;;;4971270;28;19932;-88
2023/09/17 02:24:03;;;;;;;;;;;;;;;;;;4986467;28;19957;-87
2023/09/17 02:26:30;;;;;;;;;;;;;;;;;;4970226;28;20257;-87
2023/09/17 02:29:01;;;;;;;;;;;;;;;;;;4984633;28;20323;-86
2023/09/17 02:31:29;;;;;;;;;;;;;;;;;;4969417;28;19944;-85
2023/09/17 02:33:55;;;;;;;;;;;;;;;;;;4970889;28;20251;-85
2023/09/17 02:36:21;;;;;;;;;;;;;;;;;;4972156;28;19918;-86
2023/09/17 02:38:46;;;;;;;;;;;;;;;;;;4987376;28;20371;-87
2023/09/17 02:41:14;;;;;;;;;;;;;;;;;;4956015;28;19961;-86
2023/09/17 02:43:46;;;;;;;;;;;;;;;;;;4985998;28;19942;-89
2023/09/17 02:46:14;;;;;;;;;;;;;;;;;;4969337;28;19981;-88
2023/09/17 02:48:40;;;;;;;;;;;;;;;;;;4953338;28;20221;-83
2023/09/17 02:51:05;;;;;;;;;;;;;;;;;;4986393;28;19933;-87
2023/09/17 02:53:30;;;;;;;;;;;;;;;;;;4987955;28;20479;-87
2023/09/17 02:55:58;;;;;;;;;;;;;;;;;;4985887;28;19918;-86
2023/09/17 02:58:24;;;;;;;;;;;;;;;;;;4956195;28;20010;-85
2023/09/17 03:00:52;;;;;;;;;;;;;;;;;;4986868;28;19922;-87
2023/09/17 03:03:18;;;;;;;;;;;;;;;;;;4971517;28;20473;-86
2023/09/17 03:05:44;;;;;;;;;;;;;;;;;;4971267;28;19918;-86
2023/09/17 03:08:10;;;;;;;;;;;;;;;;;;4970169;28;19925;-87
2023/09/17 03:10:42;;;;;;;;;;;;;;;;;;4985896;28;19918;-86
2023/09/17 03:13:17;;;;;;;;;;;;;;;;;;4986729;28;19976;-84
2023/09/17 03:15:45;;;;;;;;;;;;;;;;;;4951227;28;19932;-85
2023/09/17 03:18:13;;;;;;;;;;;;;;;;;;4953128;28;19997;-90
2023/09/17 03:20:39;;;;;;;;;;;;;;;;;;4973842;28;19922;-85
2023/09/17 03:23:06;;;;;;;;;;;;;;;;;;4973268;28;19917;-87
2023/09/17 03:25:31;;;;;;;;;;;;;;;;;;4974579;28;20461;-87
2023/09/17 03:27:57;;;;;;;;;;;;;;;;;;4970856;28;19979;-87
2023/09/17 03:30:24;;;;;;;;;;;;;;;;;;4974964;28;19922;-84
2023/09/17 03:32:50;;;;;;;;;;;;;;;;;;4973089;28;21406;-86
2023/09/17 03:35:15;;;;;;;;;;;;;;;;;;4973604;28;19922;-86
2023/09/17 03:37:40;;;;;;;;;;;;;;;;;;4955670;28;19921;-86
2023/09/17 03:40:14;;;;;;;;;;;;;;;;;;4972390;28;19930;-87
2023/09/17 03:42:42;;;;;;;;;;;;;;;;;;4972659;28;20255;-85
2023/09/17 03:45:10;;;;;;;;;;;;;;;;;;4989405;28;19913;-86
2023/09/17 03:47:35;;;;;;;;;;;;;;;;;;4976068;28;19965;-88
2023/09/17 03:50:04;;;;;;;;;;;;;;;;;;4992952;28;19941;-85
2023/09/17 03:52:34;;;;;;;;;;;;;;;;;;4983022;28;19993;-83
2023/09/17 03:54:59;;;;;;;;;;;;;;;;;;4980473;28;21507;-86
2023/09/17 03:57:25;;;;;;;;;;;;;;;;;;4983643;28;19973;-82
2023/09/17 03:59:50;;;;;;;;;;;;;;;;;;4985094;28;19921;-85
2023/09/17 04:02:17;;;;;;;;;;;;;;;;;;4988165;28;19910;-86
2023/09/17 04:04:42;;;;;;;;;;;;;;;;;;4997191;28;19922;-84
2023/09/17 04:07:08;;;;;;;;;;;;;;;;;;4966365;28;20290;-85
2023/09/17 04:09:35;;;;;;;;;;;;;;;;;;4970770;28;19946;-88
2023/09/17 04:12:00;;;;;;;;;;;;;;;;;;4980628;28;20012;-85
2023/09/17 04:14:26;;;;;;;;;;;;;;;;;;4994051;28;19946;-88
2023/09/17 04:16:51;;;;;;;;;;;;;;;;;;4977046;28;19969;-87
2023/09/17 04:19:19;;;;;;;;;;;;;;;;;;4972408;28;19926;-85
2023/09/17 04:21:47;;;;;;;;;;;;;;;;;;4984123;28;19973;-86
2023/09/17 04:24:12;;;;;;;;;;;;;;;;;;4983508;28;20197;-84
2023/09/17 04:26:38;;;;;;;;;;;;;;;;;;4965224;28;20360;-85
2023/09/17 04:29:04;;;;;;;;;;;;;;;;;;4969305;28;19941;-86
2023/09/17 04:31:32;;;;;;;;;;;;;;;;;;4952797;28;20013;-86
2023/09/17 04:33:57;;;;;;;;;;;;;;;;;;4985234;28;19925;-86
2023/09/17 04:36:25;;;;;;;;;;;;;;;;;;4968336;28;20431;-87
2023/09/17 04:38:51;;;;;;;;;;;;;;;;;;4983111;28;19918;-88
2023/09/17 04:41:16;;;;;;;;;;;;;;;;;;4969477;28;19922;-85
2023/09/17 04:43:44;;;;;;;;;;;;;;;;;;4967274;28;19918;-84
2023/09/17 04:46:10;;;;;;;;;;;;;;;;;;4970238;28;19915;-86
2023/09/17 04:48:37;;;;;;;;;;;;;;;;;;4967527;28;20344;-87
2023/09/17 04:51:02;;;;;;;;;;;;;;;;;;4968910;28;20093;-85
2023/09/17 04:53:28;;;;;;;;;;;;;;;;;;4984276;28;19993;-87
2023/09/17 04:55:54;;;;;;;;;;;;;;;;;;4967815;28;20039;-86
2023/09/17 04:58:19;;;;;;;;;;;;;;;;;;4967868;28;19914;-86
2023/09/17 05:00:44;;;;;;;;;;;;;;;;;;4986156;28;19922;-86
2023/09/17 05:03:11;;;;;;;;;;;;;;;;;;4967778;28;19925;-86
2023/09/17 05:05:36;;;;;;;;;;;;;;;;;;4969227;28;19914;-83
2023/09/17 05:08:02;;;;;;;;;;;;;;;;;;4969745;28;19918;-86
2023/09/17 05:10:27;;;;;;;;;;;;;;;;;;4971545;28;19914;-86
2023/09/17 05:12:53;;;;;;;;;;;;;;;;;;4968688;28;19914;-85
2023/09/17 05:15:21;;;;;;;;;;;;;;;;;;4959681;28;19918;-86
2023/09/17 05:17:49;;;;;;;;;;;;;;;;;;4963775;28;19986;-87
2023/09/17 05:20:18;;;;;;;;;;;;;;;;;;4976950;28;20356;-88
2023/09/17 05:22:43;;;;;;;;;;;;;;;;;;4977905;28;19921;-87
2023/09/17 05:25:08;;;;;;;;;;;;;;;;;;4992064;28;19936;-84
2023/09/17 05:27:34;;;;;;;;;;;;;;;;;;4977549;28;19914;-86
2023/09/17 05:30:04;;;;;;;;;;;;;;;;;;4991248;28;19922;-85
2023/09/17 05:32:33;;;;;;;;;;;;;;;;;;4977181;28;19914;-84
2023/09/17 05:35:03;;;;;;;;;;;;;;;;;;4960319;28;19986;-85
2023/09/17 05:37:28;;;;;;;;;;;;;;;;;;4958626;28;19918;-85
2023/09/17 05:39:53;;;;;;;;;;;;;;;;;;4954740;28;19940;-85
2023/09/17 05:42:21;;;;;;;;;;;;;;;;;;4971938;28;19998;-87
2023/09/17 05:44:46;;;;;;;;;;;;;;;;;;4971832;28;19929;-86
2023/09/17 05:47:17;;;;;;;;;;;;;;;;;;4968399;28;19933;-87
2023/09/17 05:49:43;;;;;;;;;;;;;;;;;;4972592;28;19966;-86
2023/09/17 05:52:08;;;;;;;;;;;;;;;;;;4971942;28;20284;-85
2023/09/17 05:54:35;;;;;;;;;;;;;;;;;;4971198;28;20332;-84
2023/09/17 05:57:00;;;;;;;;;;;;;;;;;;4987196;28;19922;-90
2023/09/17 05:59:25;;;;;;;;;;;;;;;;;;4972530;28;19918;-86
2023/09/17 06:02:01;;;;;;;;;;;;;;;;;;4956126;28;19922;-84
2023/09/17 06:04:27;;;;;;;;;;;;;;;;;;4955376;28;19922;-84
2023/09/17 06:06:58;;;;;;;;;;;;;;;;;;4969958;28;19914;-90
2023/09/17 06:09:25;;;;;;;;;;;;;;;;;;4986111;28;19914;-89
2023/09/17 06:11:51;;;;;;;;;;;;;;;;;;4972818;28;19985;-87
2023/09/17 06:14:16;;;;;;;;;;;;;;;;;;4971442;28;20352;-85
2023/09/17 06:16:42;;;;;;;;;;;;;;;;;;4970358;28;19976;-86
2023/09/17 06:19:10;;;;;;;;;;;;;;;;;;4972170;28;20367;-88
2023/09/17 06:21:36;;;;;;;;;;;;;;;;;;4975040;28;19921;-87
2023/09/17 06:24:01;;;;;;;;;;;;;;;;;;4990439;28;19938;-85
2023/09/17 06:26:29;;;;;;;;;;;;;;;;;;4990131;28;19953;-84
2023/09/17 06:29:00;;;;;;;;;;;;;;;;;;4959609;28;19926;-84
2023/09/17 06:31:29;;;;;;;;;;;;;;;;;;4991479;28;19929;-84
2023/09/17 06:33:55;;;;;;;;;;;;;;;;;;4957018;28;19922;-86
2023/09/17 06:36:24;;;;;;;;;;;;;;;;;;4972397;28;19980;-85
2023/09/17 06:38:49;;;;;;;;;;;;;;;;;;4976394;28;19918;-86
2023/09/17 06:41:14;;;;;;;;;;;;;;;;;;4974564;28;19941;-85
2023/09/17 06:43:39;;;;;;;;;;;;;;;;;;4988379;28;20458;-86
2023/09/17 06:46:08;;;;;;;;;;;;;;;;;;4973434;28;19918;-85
2023/09/17 06:48:33;;;;;;;;;;;;;;;;;;4993954;28;20127;-85
2023/09/17 06:51:07;;;;;;;;;;;;;;;;;;4976975;28;20363;-85
2023/09/17 06:53:39;;;;;;;;;;;;;;;;;;4961067;28;19949;-88
2023/09/17 06:56:05;;;;;;;;;;;;;;;;;;4973006;28;19925;-84
2023/09/17 06:58:34;;;;;;;;;;;;;;;;;;4975610;28;19952;-87
2023/09/17 07:01:02;;;;;;;;;;;;;;;;;;4961081;28;19913;-86
2023/09/17 07:03:30;;;;;;;;;;;;;;;;;;4990600;28;20446;-84
2023/09/17 07:05:56;;;;;;;;;;;;;;;;;;4964762;28;19914;-84
2023/09/17 07:08:25;;;;;;;;;;;;;;;;;;4998000;28;19918;-85
2023/09/17 07:10:55;;;;;;;;;;;;;;;;;;4981144;28;20020;-84
2023/09/17 07:13:22;;;;;;;;;;;;;;;;;;4961307;28;19918;-86
2023/09/17 07:15:50;;;;;;;;;;;;;;;;;;4977022;28;20000;-85
2023/09/17 07:18:16;;;;;;;;;;;;;;;;;;4980042;28;20521;-86
2023/09/17 07:20:41;;;;;;;;;;;;;;;;;;4977167;28;19926;-88
2023/09/17 07:23:09;;;;;;;;;;;;;;;;;;4973310;28;20026;-88
2023/09/17 07:25:36;;;;;;;;;;;;;;;;;;4959041;28;20187;-86
2023/09/17 07:28:07;;;;;;;;;;;;;;;;;;4994069;28;19972;-86
2023/09/17 07:30:34;;;;;;;;;;;;;;;;;;4992950;28;20000;-89
2023/09/17 07:32:59;;;;;;;;;;;;;;;;;;4975405;28;19929;-86
2023/09/17 07:35:26;;;;;;;;;;;;;;;;;;4988292;28;20064;-89
2023/09/17 07:37:59;;;;;;;;;;;;;;;;;;4972883;28;20280;-85
2023/09/17 07:40:24;;;;;;;;;;;;;;;;;;4974178;28;19925;-87
2023/09/17 07:42:50;;;;;;;;;;;;;;;;;;4956290;28;19996;-89
2023/09/17 07:45:21;;;;;;;;;;;;;;;;;;4974534;28;19925;-86
2023/09/17 07:47:46;;;;;;;;;;;;;;;;;;4973813;28;19913;-84
2023/09/17 07:50:12;;;;;;;;;;;;;;;;;;4990662;28;19929;-86
2023/09/17 07:52:41;;;;;;;;;;;;;;;;;;4992838;28;19941;-85
2023/09/17 07:55:09;;;;;;;;;;;;;;;;;;4978002;28;19924;-87
2023/09/17 07:57:40;;;;;;;;;;;;;;;;;;4978758;28;20259;-88
2023/09/17 08:00:06;;;;;;;;;;;;;;;;;;4976101;28;19924;-85
2023/09/17 08:02:34;;;;;;;;;;;;;;;;;;4974791;28;19921;-86
2023/09/17 08:04:59;;;;;;;;;;;;;;;;;;4973909;28;19944;-85
2023/09/17 08:07:25;;;;;;;;;;;;;;;;;;4971887;28;20382;-86
2023/09/17 08:09:59;;;;;;;;;;;;;;;;;;4988772;28;19940;-89
2023/09/17 08:12:25;;;;;;;;;;;;;;;;;;4974495;28;19918;-86
2023/09/17 08:14:52;;;;;;;;;;;;;;;;;;4970712;28;20004;-86
2023/09/17 08:17:18;;;;;;;;;;;;;;;;;;4972369;28;19918;-88
2023/09/17 08:19:49;;;;;;;;;;;;;;;;;;4973609;28;19980;-84
2023/09/17 08:22:15;;;;;;;;;;;;;;;;;;4973602;28;19946;-87
2023/09/17 08:24:41;;;;;;;;;;;;;;;;;;4987227;28;19968;-88
2023/09/17 08:27:06;;;;;;;;;;;;;;;;;;4973505;28;19913;-86
2023/09/17 08:29:33;;;;;;;;;;;;;;;;;;4929640;29;19915;-86
2023/09/17 08:32:08;;;;;;;;;;;;;;;;;;4931381;29;20033;-84
2023/09/17 08:34:34;;;;;;;;;;;;;;;;;;4913460;29;19923;-88
2023/09/17 08:37:06;;;;;;;;;;;;;;;;;;4929805;29;20013;-88
2023/09/17 08:39:34;;;;;;;;;;;;;;;;;;4902421;29;20053;-88
2023/09/17 08:42:09;;;;;;;;;;;;;;;;;;4929483;29;19943;-86
2023/09/17 08:44:40;;;;;;;;;;;;;;;;;;4928604;29;19915;-87
2023/09/17 08:47:06;;;;;;;;;;;;;;;;;;4929998;29;20015;-89
2023/09/17 08:49:40;;;;;;;;;;;;;;;;;;4897878;29;19953;-90
2023/09/17 08:52:06;;;;;;;;;;;;;;;;;;4928038;29;20076;-88
2023/09/17 08:54:33;;;;;;;;;;;;;;;;;;4930297;29;19922;-89
2023/09/17 08:57:01;;;;;;;;;;;;;;;;;;4929299;29;20363;-85
2023/09/17 08:59:27;;;;;;;;;;;;;;;;;;4931509;28;19922;-86
2023/09/17 09:01:53;;;;;;;;;;;;;;;;;;4972645;28;19914;-86
2023/09/17 09:04:21;;;;;;;;;;;;;;;;;;4971165;28;19944;-85
2023/09/17 09:06:47;;;;;;;;;;;;;;;;;;4989873;28;19925;-85
2023/09/17 09:09:12;;;;;;;;;;;;;;;;;;4973601;28;20471;-87
2023/09/17 09:11:38;;;;;;;;;;;;;;;;;;4989134;28;20017;-86
2023/09/17 09:14:06;;;;;;;;;;;;;;;;;;4989447;28;20291;-90
2023/09/17 09:16:32;;;;;;;;;;;;;;;;;;4956118;28;19925;-85
2023/09/17 09:18:59;;;;;;;;;;;;;;;;;;4970567;28;19929;-87
2023/09/17 09:21:28;;;;;;;;;;;;;;;;;;4958301;28;19964;-85
2023/09/17 09:24:00;;;;;;;;;;;;;;;;;;4991505;28;19933;-86
2023/09/17 09:26:42;;;;;;;;;;;;;;;;;;4975182;28;19918;-88
2023/09/17 09:29:08;;;;;;;;;;;;;;;;;;4959406;28;19913;-84
2023/09/17 09:31:34;;;;;;;;;;;;;;;;;;4978064;28;19914;-86
2023/09/17 09:34:00;;;;;;;;;;;;;;;;;;4974618;28;19918;-86
2023/09/17 09:36:27;;;;;;;;;;;;;;;;;;4975372;28;20351;-88
2023/09/17 09:38:53;;;;;;;;;;;;;;;;;;4974192;28;20008;-86
2023/09/17 09:41:21;;;;;;;;;;;;;;;;;;4975892;28;19956;-83
2023/09/17 09:43:48;;;;;;;;;;;;;;;;;;4957688;28;20025;-85
2023/09/17 09:46:13;;;;;;;;;;;;;;;;;;4973336;28;19958;-89
2023/09/17 09:48:39;;;;;;;;;;;;;;;;;;4979715;28;19922;-84
2023/09/17 09:51:06;;;;;;;;;;;;;;;;;;4979241;28;19917;-85
2023/09/17 09:53:31;;;;;;;;;;;;;;;;;;4977092;28;19918;-84
2023/09/17 09:55:57;;;;;;;;;;;;;;;;;;4955107;28;19918;-85
2023/09/17 09:58:25;;;;;;;;;;;;;;;;;;4992010;28;19940;-84
2023/09/17 10:00:53;;;;;;;;;;;;;;;;;;4978568;28;20000;-84
2023/09/17 10:03:20;;;;;;;;;;;;;;;;;;4993972;28;19913;-85
2023/09/17 10:05:48;;;;;;;;;;;;;;;;;;4994262;28;20351;-88
2023/09/17 10:08:20;;;;;;;;;;;;;;;;;;4993027;28;19924;-86
2023/09/17 10:10:47;;;;;;;;;;;;;;;;;;4977271;28;19971;-87
2023/09/17 10:13:13;;;;;;;;;;;;;;;;;;4995603;28;19918;-86
2023/09/17 10:15:38;;;;;;;;;;;;;;;;;;4959199;28;19928;-87
2023/09/17 10:18:04;;;;;;;;;;;;;;;;;;4976995;28;19981;-85
2023/09/17 10:20:30;;;;;;;;;;;;;;;;;;4956998;28;20121;-85
2023/09/17 10:22:58;;;;;;;;;;;;;;;;;;4976538;28;19953;-85
2023/09/17 10:25:30;;;;;;;;;;;;;;;;;;4977809;28;19929;-86
2023/09/17 10:28:01;;;;;;;;;;;;;;;;;;4976514;28;19941;-84
2023/09/17 10:30:27;;;;;;;;;;;;;;;;;;4996721;28;20021;-86
2023/09/17 10:32:56;;;;;;;;;;;;;;;;;;4993234;28;19922;-86
2023/09/17 10:35:24;;;;;;;;;;;;;;;;;;4991280;28;19964;-86
2023/09/17 10:37:52;;;;;;;;;;;;;;;;;;4976754;28;19922;-86
2023/09/17 10:40:22;;;;;;;;;;;;;;;;;;4975915;28;19928;-86
2023/09/17 10:42:47;;;;;;;;;;;;;;;;;;4959725;28;20005;-87
2023/09/17 10:45:15;;;;;;;;;;;;;;;;;;4957139;28;19918;-87
2023/09/17 10:47:41;;;;;;;;;;;;;;;;;;4991168;28;20144;-86
2023/09/17 10:50:09;;;;;;;;;;;;;;;;;;4972882;28;19914;-88
2023/09/17 10:52:37;;;;;;;;;;;;;;;;;;4958665;28;20009;-84
2023/09/17 10:55:07;;;;;;;;;;;;;;;;;;4969222;28;20347;-84
2023/09/17 10:57:32;;;;;;;;;;;;;;;;;;4972757;28;19921;-85
2023/09/17 11:00:04;;;;;;;;;;;;;;;;;;4973678;28;19980;-82
2023/09/17 11:02:31;;;;;;;;;;;;;;;;;;4967983;28;20037;-85
2023/09/17 11:04:57;;;;;;;;;;;;;;;;;;4956641;28;19929;-89
2023/09/17 11:07:23;;;;;;;;;;;;;;;;;;4989185;28;19924;-87
2023/09/17 11:09:51;;;;;;;;;;;;;;;;;;4953086;28;19930;-85
2023/09/17 11:12:16;;;;;;;;;;;;;;;;;;4988193;28;19917;-83
2023/09/17 11:14:41;;;;;;;;;;;;;;;;;;4954285;28;20315;-85
2023/09/17 11:17:09;;;;;;;;;;;;;;;;;;4974576;28;19928;-81
2023/09/17 11:19:35;;;;;;;;;;;;;;;;;;4976648;28;19932;-87
2023/09/17 11:22:05;;;;;;;;;;;;;;;;;;4954537;28;19948;-86
2023/09/17 11:24:50;;;;;;;;;;;;;;;;;;4975195;28;20316;-86
2023/09/17 11:27:16;;;;;;;;;;;;;;;;;;4975749;28;19948;-85
2023/09/17 11:29:45;;;;;;;;;;;;;;;;;;4989712;28;19918;-85
2023/09/17 11:32:13;;;;;;;;;;;;;;;;;;4958210;28;19915;-84
2023/09/17 11:34:41;;;;;;;;;;;;;;;;;;4960522;28;19927;-82
2023/09/17 11:37:09;;;;;;;;;;;;;;;;;;4959034;28;20004;-84
2023/09/17 11:39:35;;;;;;;;;;;;;;;;;;4961839;28;19925;-83
2023/09/17 11:42:05;;;;;;;;;;;;;;;;;;4962678;28;19953;-86
2023/09/17 11:44:37;;;;;;;;;;;;;;;;;;4962271;28;20009;-85
2023/09/17 11:47:03;;;;;;;;;;;;;;;;;;4962328;28;20464;-87
2023/09/17 11:49:28;;;;;;;;;;;;;;;;;;4980276;28;19914;-85
2023/09/17 11:51:57;;;;;;;;;;;;;;;;;;4961975;28;19914;-84
2023/09/17 11:54:30;;;;;;;;;;;;;;;;;;4999061;28;19972;-86
2023/09/17 11:56:55;;;;;;;;;;;;;;;;;;4996430;28;20004;-86
2023/09/17 11:59:21;;;;;;;;;;;;;;;;;;4979579;28;19976;-86
2023/09/17 12:01:47;;;;;;;;;;;;;;;;;;4995901;28;19986;-86
2023/09/17 12:04:13;;;;;;;;;;;;;;;;;;4996598;28;19922;-86
2023/09/17 12:06:41;;;;;;;;;;;;;;;;;;4980680;28;19936;-82
2023/09/17 12:09:15;;;;;;;;;;;;;;;;;;4977980;28;19941;-82
2023/09/17 12:11:42;;;;;;;;;;;;;;;;;;4993865;28;19918;-86
2023/09/17 12:14:10;;;;;;;;;;;;;;;;;;4978854;28;20356;-84
2023/09/17 12:16:36;;;;;;;;;;;;;;;;;;4992953;28;19976;-85
2023/09/17 12:19:02;;;;;;;;;;;;;;;;;;4992147;28;19933;-86
2023/09/17 12:21:31;;;;;;;;;;;;;;;;;;4992637;28;19925;-87
2023/09/17 12:24:15;;;;;;;;;;;;;;;;;;4978418;28;19991;-85
2023/09/17 12:29:53;;;;;;;;;;;;;;;;;;4988443;28;19990;-85
2023/09/17 12:32:19;;;;;;;;;;;;;;;;;;4987451;28;19944;-87
2023/09/17 12:34:57;;;;;;;;;;;;;;;;;;4979069;28;19921;-88
2023/09/17 12:37:59;;;;;;;;;;;;;;;;;;4907131;29;19934;-86
2023/09/17 12:40:30;;;;;;;;;;;;;;;;;;4970294;28;19918;-87
2023/09/17 12:43:01;;;;;;;;;;;;;;;;;;4986542;28;20339;-87
2023/09/17 12:45:26;;;;;;;;;;;;;;;;;;4969721;28;20003;-89
2023/09/17 12:47:53;;;;;;;;;;;;;;;;;;4985738;28;20351;-89
2023/09/17 12:50:20;;;;;;;;;;;;;;;;;;4968768;28;19914;-88
2023/09/17 12:52:50;;;;;;;;;;;;;;;;;;4986622;28;19928;-88
2023/09/17 12:55:25;;;;;;;;;;;;;;;;;;4956278;28;20001;-85
2023/09/17 14:40:46;;;;;;;;;;;;;;;;;;4977389;28;20380;-68
2023/09/17 14:43:12;;;;;;;;;;;;;;;;;;4983986;28;19975;-69
2023/09/17 14:45:41;;;;;;;;;;;;;;;;;;4986737;28;20399;-69
2023/09/17 14:48:09;;;;;;;;;;;;;;;;;;4952117;28;19937;-69
2023/09/17 14:56:56;;;;;;;;;;;;;;;;;;;;;
2023/09/17 14:59:31;;;;;;;;;;;;;;;;;;4981501;28;19921;-68
2023/09/17 15:02:00;;;;;;;;;;;;;;;;;;4970889;28;19972;-69
2023/09/17 15:04:25;;;;;;;;;;;;;;;;;;4982864;28;19921;-69
2023/09/17 15:06:51;;;;;;;;;;;;;;;;;;4950705;28;20478;-68
2023/09/17 15:09:16;;;;;;;;;;;;;;;;;;4982974;28;21209;-67
2023/09/17 15:11:42;;;;;;;;;;;;;;;;;;4981662;28;19917;-69
2023/09/17 15:14:10;;;;;;;;;;;;;;;;;;4965477;28;19932;-69
2023/09/17 15:16:35;;;;;;;;;;;;;;;;;;4983400;28;19965;-68
2023/09/17 15:19:01;;;;;;;;;;;;;;;;;;4980966;28;19927;-69
2023/09/17 15:21:28;;;;;;;;;;;;;;;;;;4986352;28;19921;-68
2023/09/17 15:23:53;;;;;;;;;;;;;;;;;;4948489;28;19937;-68
2023/09/17 15:26:22;;;;;;;;;;;;;;;;;;4982398;28;20083;-68
2023/09/17 15:28:49;;;;;;;;;;;;;;;;;;4952293;28;19925;-68
2023/09/17 15:31:20;;;;;;;;;;;;;;;;;;4983822;28;20007;-68
2023/09/17 15:33:45;;;;;;;;;;;;;;;;;;4959037;28;19922;-68
2023/09/17 15:36:13;;;;;;;;;;;;;;;;;;4961765;28;19937;-69
2023/09/17 15:38:38;;;;;;;;;;;;;;;;;;4964150;28;20004;-68
2023/09/17 15:41:04;;;;;;;;;;;;;;;;;;4998018;28;19931;-68
2023/09/17 15:43:30;;;;;;;;;;;;;;;;;;5016102;28;19929;-68
2023/09/17 15:45:55;;;;;;;;;;;;;;;;;;4985926;28;19922;-68
2023/09/17 15:48:20;;;;;;;;;;;;;;;;;;4980691;28;19943;-68
2023/09/17 15:50:51;;;;;;;;;;;;;;;;;;4986169;28;19921;-68
2023/09/17 15:53:19;;;;;;;;;;;;;;;;;;5007943;28;19917;-67
2023/09/17 15:55:44;;;;;;;;;;;;;;;;;;5001179;28;19921;-66
2023/09/17 15:58:11;;;;;;;;;;;;;;;;;;4992172;28;20463;-66
2023/09/17 16:00:38;;;;;;;;;;;;;;;;;;5018215;28;20006;-67
2023/09/17 16:03:07;;;;;;;;;;;;;;;;;;4997906;28;19951;-66
2023/09/17 16:05:32;;;;;;;;;;;;;;;;;;4998321;28;19956;-67
2023/09/17 16:07:57;;;;;;;;;;;;;;;;;;5017305;28;19913;-67
2023/09/17 16:10:25;;;;;;;;;;;;;;;;;;5018418;28;20352;-66
2023/09/17 16:12:53;;;;;;;;;;;;;;;;;;4984698;28;19913;-66
2023/09/17 16:15:18;;;;;;;;;;;;;;;;;;5015425;28;19920;-66
2023/09/17 16:17:46;;;;;;;;;;;;;;;;;;5019377;28;19917;-66
2023/09/17 16:20:16;;;;;;;;;;;;;;;;;;4998340;28;19913;-66
2023/09/17 16:22:42;;;;;;;;;;;;;;;;;;5002233;28;19967;-66
2023/09/17 16:25:08;;;;;;;;;;;;;;;;;;4998141;28;19925;-65
2023/09/17 16:27:33;;;;;;;;;;;;;;;;;;4995236;28;19925;-66
2023/09/17 16:30:01;;;;;;;;;;;;;;;;;;5014084;28;19998;-67
2023/09/17 16:32:29;;;;;;;;;;;;;;;;;;4979786;28;19925;-66
2023/09/17 16:34:57;;;;;;;;;;;;;;;;;;4998185;28;19913;-66
2023/09/17 16:37:27;;;;;;;;;;;;;;;;;;4999194;28;19921;-66
2023/09/17 16:39:53;;;;;;;;;;;;;;;;;;5012646;28;20040;-66
2023/09/17 16:42:23;;;;;;;;;;;;;;;;;;4998335;28;19928;-66
2023/09/17 16:44:51;;;;;;;;;;;;;;;;;;5013802;28;19924;-67
2023/09/17 16:47:19;;;;;;;;;;;;;;;;;;5012142;28;19963;-66
2023/09/17 16:49:45;;;;;;;;;;;;;;;;;;5002385;28;19918;-66
2023/09/17 16:52:10;;;;;;;;;;;;;;;;;;4999933;28;19917;-66
2023/09/17 16:54:40;;;;;;;;;;;;;;;;;;4996124;28;19999;-66
2023/09/17 16:57:09;;;;;;;;;;;;;;;;;;5015853;28;19969;-66
2023/09/17 16:59:37;;;;;;;;;;;;;;;;;;4999575;28;19917;-66
2023/09/17 17:02:06;;;;;;;;;;;;;;;;;;5016962;28;19940;-66
2023/09/17 17:04:31;;;;;;;;;;;;;;;;;;5012485;28;19928;-66
2023/09/17 17:06:56;;;;;;;;;;;;;;;;;;4996964;28;19918;-66
2023/09/17 17:09:26;;;;;;;;;;;;;;;;;;5017590;28;20476;-65
2023/09/17 17:11:55;;;;;;;;;;;;;;;;;;5001172;28;19924;-66
2023/09/17 17:14:20;;;;;;;;;;;;;;;;;;5018114;28;19947;-66
2023/09/17 17:16:47;;;;;;;;;;;;;;;;;;5016239;28;20299;-66
2023/09/17 17:19:13;;;;;;;;;;;;;;;;;;4992083;28;20465;-66
2023/09/17 17:21:38;;;;;;;;;;;;;;;;;;5017462;28;19921;-66
2023/09/17 17:24:06;;;;;;;;;;;;;;;;;;5017147;28;20444;-66
2023/09/17 17:26:31;;;;;;;;;;;;;;;;;;5003925;28;19924;-66
2023/09/17 17:28:57;;;;;;;;;;;;;;;;;;5020081;28;19917;-66
2023/09/17 17:31:27;;;;;;;;;;;;;;;;;;4985234;28;19928;-66
2023/09/17 17:33:55;;;;;;;;;;;;;;;;;;5017000;28;19924;-67
2023/09/17 17:36:21;;;;;;;;;;;;;;;;;;4996405;28;19924;-67
2023/09/17 17:38:46;;;;;;;;;;;;;;;;;;4996008;28;19924;-66
2023/09/17 17:41:12;;;;;;;;;;;;;;;;;;4996890;28;19926;-67
2023/09/17 17:43:40;;;;;;;;;;;;;;;;;;5013800;28;19917;-67
2023/09/17 17:46:08;;;;;;;;;;;;;;;;;;4993177;28;19968;-66
2023/09/17 17:48:33;;;;;;;;;;;;;;;;;;4997924;28;19921;-66
2023/09/17 17:50:58;;;;;;;;;;;;;;;;;;5014602;28;19982;-67
2023/09/17 17:53:27;;;;;;;;;;;;;;;;;;5011536;28;20236;-66
2023/09/17 17:55:52;;;;;;;;;;;;;;;;;;4998699;28;19925;-66
2023/09/17 17:58:20;;;;;;;;;;;;;;;;;;4996963;28;19951;-67
2023/09/17 18:00:49;;;;;;;;;;;;;;;;;;4995621;28;19930;-67
2023/09/17 18:03:17;;;;;;;;;;;;;;;;;;5015729;28;20295;-67
2023/09/17 18:05:43;;;;;;;;;;;;;;;;;;5014151;28;19949;-67
2023/09/17 18:08:08;;;;;;;;;;;;;;;;;;5001979;28;20347;-67
2023/09/17 18:10:37;;;;;;;;;;;;;;;;;;5015900;28;19964;-67
2023/09/17 18:13:05;;;;;;;;;;;;;;;;;;5000244;28;19917;-67
2023/09/17 18:15:32;;;;;;;;;;;;;;;;;;5016798;28;19925;-66
2023/09/17 18:17:57;;;;;;;;;;;;;;;;;;5016121;28;19918;-66
2023/09/17 18:20:22;;;;;;;;;;;;;;;;;;5017294;28;19924;-67
2023/09/17 18:22:50;;;;;;;;;;;;;;;;;;5006400;28;20032;-66
2023/09/17 18:25:15;;;;;;;;;;;;;;;;;;4973976;28;19925;-66
2023/09/17 18:27:41;;;;;;;;;;;;;;;;;;5005534;28;19964;-67
2023/09/17 18:30:06;;;;;;;;;;;;;;;;;;5005228;28;19921;-67
2023/09/17 18:32:33;;;;;;;;;;;;;;;;;;4988103;28;19995;-67
2023/09/17 18:35:04;;;;;;;;;;;;;;;;;;4981670;28;20394;-67
2023/09/17 18:37:30;;;;;;;;;;;;;;;;;;4987213;28;19983;-67
2023/09/17 18:39:55;;;;;;;;;;;;;;;;;;5019060;28;20512;-68